sensor_id;sensor_type;location;lat;lon;timestamp;P1;durP1;ratioP1;P2;durP2;ratioP2
7444;SDS011;3764;48.126;11.594;2023-03-01T00:01:30;22.05;;;14.05;;
7444;SDS011;3764;48.126;11.594;2023-03-01T00:03:58;27.77;;;17.15;;
7444;SDS011;3764;48.126;11.594;2023-03-01T00:06:26;21.77;;;15.27;;
7444;SDS011;3764;48.126;11.594;2023-03-01T00:08:54;21.48;;;14.65;;
7444;SDS011;3764;48.126;11.594;2023-03-01T00:11:24;22.60;;;14.45;;
7444;SDS011;3764;48.126;11.594;2023-03-01T00:13:53;26.52;;;15.32;;
7444;SDS011;3764;48.126;11.594;2023-03-01T00:16:23;21.25;;;14.95;;
7444;SDS011;3764;48.126;11.594;2023-03-01T00:18:51;27.45;;;15.63;;
7444;SDS011;3764;48.126;11.594;2023-03-01T00:21:19;26.27;;;16.02;;
7444;SDS011;3764;48.126;11.594;2023-03-01T00:23:47;26.00;;;17.10;;
7444;SDS011;3764;48.126;11.594;2023-03-01T00:26:15;23.27;;;14.20;;
7444;SDS011;3764;48.126;11.594;2023-03-01T00:28:44;25.10;;;16.77;;
7444;SDS011;3764;48.126;11.594;2023-03-01T00:31:13;18.60;;;14.93;;
7444;SDS011;3764;48.126;11.594;2023-03-01T00:33:41;22.13;;;14.27;;
7444;SDS011;3764;48.126;11.594;2023-03-01T00:36:09;20.42;;;14.43;;
7444;SDS011;3764;48.126;11.594;2023-03-01T00:38:38;23.60;;;15.82;;
7444;SDS011;3764;48.126;11.594;2023-03-01T00:41:07;25.55;;;15.73;;
7444;SDS011;3764;48.126;11.594;2023-03-01T00:43:35;23.77;;;14.05;;
7444;SDS011;3764;48.126;11.594;2023-03-01T00:46:04;23.73;;;13.88;;
7444;SDS011;3764;48.126;11.594;2023-03-01T00:48:33;26.63;;;15.35;;
7444;SDS011;3764;48.126;11.594;2023-03-01T00:51:04;21.98;;;15.48;;
7444;SDS011;3764;48.126;11.594;2023-03-01T00:53:33;26.13;;;15.23;;
7444;SDS011;3764;48.126;11.594;2023-03-01T00:56:00;24.98;;;16.27;;
7444;SDS011;3764;48.126;11.594;2023-03-01T00:58:28;23.88;;;15.15;;
7444;SDS011;3764;48.126;11.594;2023-03-01T01:00:55;22.48;;;15.13;;
7444;SDS011;3764;48.126;11.594;2023-03-01T01:03:23;26.17;;;16.45;;
7444;SDS011;3764;48.126;11.594;2023-03-01T01:05:50;26.25;;;17.05;;
7444;SDS011;3764;48.126;11.594;2023-03-01T01:08:18;23.25;;;15.25;;
7444;SDS011;3764;48.126;11.594;2023-03-01T01:10:45;23.92;;;15.07;;
7444;SDS011;3764;48.126;11.594;2023-03-01T01:13:13;25.40;;;15.75;;
7444;SDS011;3764;48.126;11.594;2023-03-01T01:15:40;21.98;;;15.75;;
7444;SDS011;3764;48.126;11.594;2023-03-01T01:18:07;24.52;;;16.05;;
7444;SDS011;3764;48.126;11.594;2023-03-01T01:20:36;24.65;;;16.13;;
7444;SDS011;3764;48.126;11.594;2023-03-01T01:23:04;24.42;;;15.23;;
7444;SDS011;3764;48.126;11.594;2023-03-01T01:25:33;24.23;;;14.95;;
7444;SDS011;3764;48.126;11.594;2023-03-01T01:28:01;25.52;;;14.88;;
7444;SDS011;3764;48.126;11.594;2023-03-01T01:30:29;19.55;;;15.00;;
7444;SDS011;3764;48.126;11.594;2023-03-01T01:32:56;24.83;;;15.40;;
7444;SDS011;3764;48.126;11.594;2023-03-01T01:35:23;22.27;;;15.40;;
7444;SDS011;3764;48.126;11.594;2023-03-01T01:37:52;22.70;;;14.57;;
7444;SDS011;3764;48.126;11.594;2023-03-01T01:40:19;21.90;;;15.00;;
7444;SDS011;3764;48.126;11.594;2023-03-01T01:42:46;26.17;;;15.68;;
7444;SDS011;3764;48.126;11.594;2023-03-01T01:45:27;25.13;;;16.30;;
7444;SDS011;3764;48.126;11.594;2023-03-01T01:47:57;24.88;;;16.30;;
7444;SDS011;3764;48.126;11.594;2023-03-01T01:50:29;24.70;;;16.17;;
7444;SDS011;3764;48.126;11.594;2023-03-01T01:53:04;21.05;;;15.15;;
7444;SDS011;3764;48.126;11.594;2023-03-01T01:55:35;26.90;;;16.65;;
7444;SDS011;3764;48.126;11.594;2023-03-01T01:58:06;23.35;;;15.13;;
7444;SDS011;3764;48.126;11.594;2023-03-01T02:00:35;17.85;;;13.82;;
7444;SDS011;3764;48.126;11.594;2023-03-01T02:03:04;22.35;;;14.60;;
7444;SDS011;3764;48.126;11.594;2023-03-01T02:05:37;22.27;;;14.82;;
7444;SDS011;3764;48.126;11.594;2023-03-01T02:08:09;22.88;;;14.77;;
7444;SDS011;3764;48.126;11.594;2023-03-01T02:10:39;24.85;;;15.80;;
7444;SDS011;3764;48.126;11.594;2023-03-01T02:13:07;26.65;;;15.20;;
7444;SDS011;3764;48.126;11.594;2023-03-01T02:15:36;24.85;;;16.00;;
7444;SDS011;3764;48.126;11.594;2023-03-01T02:18:05;23.45;;;15.52;;
7444;SDS011;3764;48.126;11.594;2023-03-01T02:20:34;21.92;;;15.05;;
7444;SDS011;3764;48.126;11.594;2023-03-01T02:23:06;26.05;;;15.90;;
7444;SDS011;3764;48.126;11.594;2023-03-01T02:25:35;22.38;;;14.25;;
7444;SDS011;3764;48.126;11.594;2023-03-01T02:30:49;27.27;;;16.10;;
7444;SDS011;3764;48.126;11.594;2023-03-01T02:33:34;27.65;;;15.13;;
7444;SDS011;3764;48.126;11.594;2023-03-01T02:36:04;23.02;;;16.00;;
7444;SDS011;3764;48.126;11.594;2023-03-01T02:38:34;22.23;;;15.40;;
7444;SDS011;3764;48.126;11.594;2023-03-01T02:41:02;23.52;;;15.30;;
7444;SDS011;3764;48.126;11.594;2023-03-01T02:43:33;21.20;;;14.57;;
7444;SDS011;3764;48.126;11.594;2023-03-01T02:46:02;23.10;;;14.85;;
7444;SDS011;3764;48.126;11.594;2023-03-01T02:48:41;23.00;;;15.43;;
7444;SDS011;3764;48.126;11.594;2023-03-01T02:51:14;26.50;;;15.10;;
7444;SDS011;3764;48.126;11.594;2023-03-01T02:54:05;21.10;;;15.20;;
7444;SDS011;3764;48.126;11.594;2023-03-01T02:56:39;22.77;;;15.07;;
7444;SDS011;3764;48.126;11.594;2023-03-01T02:59:09;23.95;;;14.90;;
7444;SDS011;3764;48.126;11.594;2023-03-01T03:01:38;26.00;;;16.00;;
7444;SDS011;3764;48.126;11.594;2023-03-01T03:04:05;22.67;;;15.00;;
7444;SDS011;3764;48.126;11.594;2023-03-01T03:06:33;24.88;;;14.30;;
7444;SDS011;3764;48.126;11.594;2023-03-01T03:09:00;27.50;;;15.82;;
7444;SDS011;3764;48.126;11.594;2023-03-01T03:11:27;23.73;;;15.23;;
7444;SDS011;3764;48.126;11.594;2023-03-01T03:13:55;23.38;;;16.05;;
7444;SDS011;3764;48.126;11.594;2023-03-01T03:16:24;23.50;;;15.32;;
7444;SDS011;3764;48.126;11.594;2023-03-01T03:18:51;24.60;;;15.77;;
7444;SDS011;3764;48.126;11.594;2023-03-01T03:21:18;22.42;;;14.90;;
7444;SDS011;3764;48.126;11.594;2023-03-01T03:23:45;22.40;;;15.05;;
7444;SDS011;3764;48.126;11.594;2023-03-01T03:26:12;25.98;;;15.93;;
7444;SDS011;3764;48.126;11.594;2023-03-01T03:28:40;25.98;;;15.05;;
7444;SDS011;3764;48.126;11.594;2023-03-01T03:31:07;23.08;;;15.27;;
7444;SDS011;3764;48.126;11.594;2023-03-01T03:33:36;23.70;;;15.57;;
7444;SDS011;3764;48.126;11.594;2023-03-01T03:36:03;23.45;;;14.55;;
7444;SDS011;3764;48.126;11.594;2023-03-01T03:38:31;19.50;;;14.35;;
7444;SDS011;3764;48.126;11.594;2023-03-01T03:40:59;24.67;;;16.58;;
7444;SDS011;3764;48.126;11.594;2023-03-01T03:43:28;25.13;;;15.57;;
7444;SDS011;3764;48.126;11.594;2023-03-01T03:45:57;22.88;;;15.80;;
7444;SDS011;3764;48.126;11.594;2023-03-01T03:48:24;23.38;;;15.90;;
7444;SDS011;3764;48.126;11.594;2023-03-01T03:50:54;22.10;;;14.98;;
7444;SDS011;3764;48.126;11.594;2023-03-01T03:53:22;24.88;;;13.73;;
7444;SDS011;3764;48.126;11.594;2023-03-01T03:55:51;25.40;;;15.38;;
7444;SDS011;3764;48.126;11.594;2023-03-01T03:58:19;22.80;;;15.73;;
7444;SDS011;3764;48.126;11.594;2023-03-01T04:00:48;25.65;;;16.58;;
7444;SDS011;3764;48.126;11.594;2023-03-01T04:03:17;29.60;;;15.15;;
7444;SDS011;3764;48.126;11.594;2023-03-01T04:05:45;25.58;;;16.83;;
7444;SDS011;3764;48.126;11.594;2023-03-01T04:08:16;25.98;;;15.23;;
7444;SDS011;3764;48.126;11.594;2023-03-01T04:10:46;22.92;;;15.40;;
7444;SDS011;3764;48.126;11.594;2023-03-01T04:13:15;24.00;;;15.50;;
7444;SDS011;3764;48.126;11.594;2023-03-01T04:15:44;23.52;;;16.38;;
7444;SDS011;3764;48.126;11.594;2023-03-01T04:18:12;21.88;;;15.77;;
7444;SDS011;3764;48.126;11.594;2023-03-01T04:20:40;26.45;;;15.20;;
7444;SDS011;3764;48.126;11.594;2023-03-01T04:23:09;27.13;;;16.27;;
7444;SDS011;3764;48.126;11.594;2023-03-01T04:25:40;24.30;;;16.20;;
7444;SDS011;3764;48.126;11.594;2023-03-01T04:28:09;22.35;;;16.20;;
7444;SDS011;3764;48.126;11.594;2023-03-01T04:30:37;24.00;;;16.13;;
7444;SDS011;3764;48.126;11.594;2023-03-01T04:33:05;26.48;;;16.75;;
7444;SDS011;3764;48.126;11.594;2023-03-01T04:35:34;26.90;;;16.20;;
7444;SDS011;3764;48.126;11.594;2023-03-01T04:38:02;27.27;;;16.27;;
7444;SDS011;3764;48.126;11.594;2023-03-01T04:40:30;30.17;;;16.45;;
7444;SDS011;3764;48.126;11.594;2023-03-01T04:42:58;26.38;;;16.33;;
7444;SDS011;3764;48.126;11.594;2023-03-01T04:45:25;24.08;;;15.70;;
7444;SDS011;3764;48.126;11.594;2023-03-01T04:47:52;26.27;;;15.02;;
7444;SDS011;3764;48.126;11.594;2023-03-01T04:50:21;25.73;;;18.27;;
7444;SDS011;3764;48.126;11.594;2023-03-01T04:52:48;25.38;;;17.10;;
7444;SDS011;3764;48.126;11.594;2023-03-01T04:55:16;27.25;;;17.58;;
7444;SDS011;3764;48.126;11.594;2023-03-01T04:57:43;24.38;;;16.30;;
7444;SDS011;3764;48.126;11.594;2023-03-01T05:00:12;22.25;;;16.17;;
7444;SDS011;3764;48.126;11.594;2023-03-01T05:02:50;25.02;;;15.75;;
7444;SDS011;3764;48.126;11.594;2023-03-01T05:05:20;25.27;;;13.93;;
7444;SDS011;3764;48.126;11.594;2023-03-01T05:07:51;26.20;;;15.93;;
7444;SDS011;3764;48.126;11.594;2023-03-01T05:10:22;25.42;;;15.98;;
7444;SDS011;3764;48.126;11.594;2023-03-01T05:12:49;24.67;;;15.23;;
7444;SDS011;3764;48.126;11.594;2023-03-01T05:15:19;22.83;;;14.80;;
7444;SDS011;3764;48.126;11.594;2023-03-01T05:17:50;24.50;;;16.63;;
7444;SDS011;3764;48.126;11.594;2023-03-01T05:20:17;30.08;;;17.83;;
7444;SDS011;3764;48.126;11.594;2023-03-01T05:22:48;22.85;;;15.63;;
7444;SDS011;3764;48.126;11.594;2023-03-01T05:25:15;27.20;;;17.13;;
7444;SDS011;3764;48.126;11.594;2023-03-01T05:27:42;22.98;;;15.60;;
7444;SDS011;3764;48.126;11.594;2023-03-01T05:30:09;25.35;;;15.88;;
7444;SDS011;3764;48.126;11.594;2023-03-01T05:32:42;28.52;;;17.63;;
7444;SDS011;3764;48.126;11.594;2023-03-01T05:35:10;25.60;;;15.75;;
7444;SDS011;3764;48.126;11.594;2023-03-01T05:37:40;27.83;;;17.85;;
7444;SDS011;3764;48.126;11.594;2023-03-01T05:40:08;22.13;;;15.23;;
7444;SDS011;3764;48.126;11.594;2023-03-01T05:42:43;29.38;;;16.95;;
7444;SDS011;3764;48.126;11.594;2023-03-01T05:45:12;27.23;;;16.75;;
7444;SDS011;3764;48.126;11.594;2023-03-01T05:47:40;27.70;;;17.50;;
7444;SDS011;3764;48.126;11.594;2023-03-01T05:50:11;26.27;;;15.52;;
7444;SDS011;3764;48.126;11.594;2023-03-01T05:52:39;25.38;;;16.58;;
7444;SDS011;3764;48.126;11.594;2023-03-01T05:55:06;28.52;;;17.65;;
7444;SDS011;3764;48.126;11.594;2023-03-01T05:57:34;29.10;;;17.33;;
7444;SDS011;3764;48.126;11.594;2023-03-01T06:00:01;30.75;;;17.08;;
7444;SDS011;3764;48.126;11.594;2023-03-01T06:02:29;30.42;;;17.10;;
7444;SDS011;3764;48.126;11.594;2023-03-01T06:04:57;25.13;;;17.30;;
7444;SDS011;3764;48.126;11.594;2023-03-01T06:07:24;28.02;;;16.40;;
7444;SDS011;3764;48.126;11.594;2023-03-01T06:09:51;25.42;;;16.85;;
7444;SDS011;3764;48.126;11.594;2023-03-01T06:12:18;28.50;;;16.73;;
7444;SDS011;3764;48.126;11.594;2023-03-01T06:17:13;28.27;;;17.40;;
7444;SDS011;3764;48.126;11.594;2023-03-01T06:19:40;25.52;;;16.40;;
7444;SDS011;3764;48.126;11.594;2023-03-01T06:22:09;25.90;;;16.20;;
7444;SDS011;3764;48.126;11.594;2023-03-01T06:24:36;29.63;;;18.52;;
7444;SDS011;3764;48.126;11.594;2023-03-01T06:27:03;29.42;;;16.90;;
7444;SDS011;3764;48.126;11.594;2023-03-01T06:29:30;28.20;;;15.65;;
7444;SDS011;3764;48.126;11.594;2023-03-01T06:31:57;26.35;;;16.65;;
7444;SDS011;3764;48.126;11.594;2023-03-01T06:34:24;31.30;;;17.27;;
7444;SDS011;3764;48.126;11.594;2023-03-01T06:36:51;28.58;;;17.15;;
7444;SDS011;3764;48.126;11.594;2023-03-01T06:39:20;31.40;;;18.30;;
7444;SDS011;3764;48.126;11.594;2023-03-01T06:41:47;32.13;;;17.90;;
7444;SDS011;3764;48.126;11.594;2023-03-01T06:44:14;26.83;;;16.48;;
7444;SDS011;3764;48.126;11.594;2023-03-01T06:46:41;29.23;;;16.75;;
7444;SDS011;3764;48.126;11.594;2023-03-01T06:49:08;28.90;;;18.52;;
7444;SDS011;3764;48.126;11.594;2023-03-01T06:51:35;21.95;;;14.75;;
7444;SDS011;3764;48.126;11.594;2023-03-01T06:54:03;27.83;;;15.80;;
7444;SDS011;3764;48.126;11.594;2023-03-01T06:56:31;30.20;;;16.52;;
7444;SDS011;3764;48.126;11.594;2023-03-01T06:58:59;26.25;;;16.08;;
7444;SDS011;3764;48.126;11.594;2023-03-01T07:01:26;26.55;;;16.33;;
7444;SDS011;3764;48.126;11.594;2023-03-01T07:03:53;29.92;;;16.98;;
7444;SDS011;3764;48.126;11.594;2023-03-01T07:06:20;23.48;;;16.38;;
7444;SDS011;3764;48.126;11.594;2023-03-01T07:08:47;27.35;;;16.90;;
7444;SDS011;3764;48.126;11.594;2023-03-01T07:11:14;25.50;;;16.58;;
7444;SDS011;3764;48.126;11.594;2023-03-01T07:13:43;29.65;;;16.42;;
7444;SDS011;3764;48.126;11.594;2023-03-01T07:16:10;28.17;;;17.17;;
7444;SDS011;3764;48.126;11.594;2023-03-01T07:18:37;26.70;;;16.73;;
7444;SDS011;3764;48.126;11.594;2023-03-01T07:21:05;27.50;;;17.73;;
7444;SDS011;3764;48.126;11.594;2023-03-01T07:23:32;27.45;;;17.55;;
7444;SDS011;3764;48.126;11.594;2023-03-01T07:25:59;30.70;;;16.40;;
7444;SDS011;3764;48.126;11.594;2023-03-01T07:28:27;31.08;;;18.13;;
7444;SDS011;3764;48.126;11.594;2023-03-01T07:30:58;26.88;;;17.10;;
7444;SDS011;3764;48.126;11.594;2023-03-01T07:33:27;37.80;;;17.35;;
7444;SDS011;3764;48.126;11.594;2023-03-01T07:35:58;26.98;;;16.33;;
7444;SDS011;3764;48.126;11.594;2023-03-01T07:38:26;26.65;;;16.90;;
7444;SDS011;3764;48.126;11.594;2023-03-01T07:40:57;25.88;;;16.38;;
7444;SDS011;3764;48.126;11.594;2023-03-01T07:43:25;27.23;;;17.88;;
7444;SDS011;3764;48.126;11.594;2023-03-01T07:45:52;28.42;;;17.15;;
7444;SDS011;3764;48.126;11.594;2023-03-01T07:48:20;25.00;;;16.50;;
7444;SDS011;3764;48.126;11.594;2023-03-01T07:50:47;32.20;;;19.73;;
7444;SDS011;3764;48.126;11.594;2023-03-01T07:53:14;29.95;;;15.07;;
7444;SDS011;3764;48.126;11.594;2023-03-01T07:55:41;26.13;;;16.40;;
7444;SDS011;3764;48.126;11.594;2023-03-01T07:58:08;33.15;;;17.55;;
7444;SDS011;3764;48.126;11.594;2023-03-01T08:00:36;27.85;;;18.52;;
7444;SDS011;3764;48.126;11.594;2023-03-01T08:03:03;31.23;;;17.17;;
7444;SDS011;3764;48.126;11.594;2023-03-01T08:05:31;31.10;;;17.38;;
7444;SDS011;3764;48.126;11.594;2023-03-01T08:07:58;29.23;;;16.88;;
7444;SDS011;3764;48.126;11.594;2023-03-01T08:10:26;29.17;;;17.27;;
7444;SDS011;3764;48.126;11.594;2023-03-01T08:12:53;29.88;;;17.92;;
7444;SDS011;3764;48.126;11.594;2023-03-01T08:15:20;26.98;;;17.23;;
7444;SDS011;3764;48.126;11.594;2023-03-01T08:17:48;30.40;;;17.80;;
7444;SDS011;3764;48.126;11.594;2023-03-01T08:20:16;30.67;;;17.45;;
7444;SDS011;3764;48.126;11.594;2023-03-01T08:22:44;31.92;;;18.60;;
7444;SDS011;3764;48.126;11.594;2023-03-01T08:25:11;27.73;;;16.88;;
7444;SDS011;3764;48.126;11.594;2023-03-01T08:27:39;30.73;;;16.70;;
7444;SDS011;3764;48.126;11.594;2023-03-01T08:30:06;28.52;;;17.75;;
7444;SDS011;3764;48.126;11.594;2023-03-01T08:32:37;27.17;;;16.88;;
7444;SDS011;3764;48.126;11.594;2023-03-01T08:35:05;33.80;;;17.33;;
7444;SDS011;3764;48.126;11.594;2023-03-01T08:37:32;25.42;;;15.65;;
7444;SDS011;3764;48.126;11.594;2023-03-01T08:40:01;28.63;;;18.42;;
7444;SDS011;3764;48.126;11.594;2023-03-01T08:42:28;31.00;;;17.45;;
7444;SDS011;3764;48.126;11.594;2023-03-01T08:44:56;34.65;;;18.63;;
7444;SDS011;3764;48.126;11.594;2023-03-01T08:47:23;29.85;;;18.60;;
7444;SDS011;3764;48.126;11.594;2023-03-01T08:49:51;34.92;;;19.13;;
7444;SDS011;3764;48.126;11.594;2023-03-01T08:52:18;29.92;;;19.48;;
7444;SDS011;3764;48.126;11.594;2023-03-01T08:54:47;26.75;;;16.80;;
7444;SDS011;3764;48.126;11.594;2023-03-01T08:57:15;27.23;;;17.92;;
7444;SDS011;3764;48.126;11.594;2023-03-01T08:59:42;31.45;;;17.60;;
7444;SDS011;3764;48.126;11.594;2023-03-01T09:02:11;32.45;;;18.00;;
7444;SDS011;3764;48.126;11.594;2023-03-01T09:04:40;34.03;;;19.75;;
7444;SDS011;3764;48.126;11.594;2023-03-01T09:07:08;27.58;;;17.60;;
7444;SDS011;3764;48.126;11.594;2023-03-01T09:09:35;29.58;;;17.95;;
7444;SDS011;3764;48.126;11.594;2023-03-01T09:12:03;27.85;;;17.75;;
7444;SDS011;3764;48.126;11.594;2023-03-01T09:14:32;28.10;;;17.23;;
7444;SDS011;3764;48.126;11.594;2023-03-01T09:16:59;32.80;;;16.75;;
7444;SDS011;3764;48.126;11.594;2023-03-01T09:19:28;27.58;;;16.63;;
7444;SDS011;3764;48.126;11.594;2023-03-01T09:21:55;25.92;;;18.08;;
7444;SDS011;3764;48.126;11.594;2023-03-01T09:24:23;30.23;;;19.33;;
7444;SDS011;3764;48.126;11.594;2023-03-01T09:26:52;31.02;;;17.63;;
7444;SDS011;3764;48.126;11.594;2023-03-01T09:29:20;32.80;;;18.45;;
7444;SDS011;3764;48.126;11.594;2023-03-01T09:31:48;27.50;;;16.92;;
7444;SDS011;3764;48.126;11.594;2023-03-01T09:34:16;27.00;;;16.75;;
7444;SDS011;3764;48.126;11.594;2023-03-01T09:36:48;27.40;;;17.20;;
7444;SDS011;3764;48.126;11.594;2023-03-01T09:39:15;29.67;;;18.00;;
7444;SDS011;3764;48.126;11.594;2023-03-01T09:41:45;29.42;;;17.45;;
7444;SDS011;3764;48.126;11.594;2023-03-01T09:44:21;28.75;;;17.13;;
7444;SDS011;3764;48.126;11.594;2023-03-01T09:46:57;27.38;;;17.08;;
7444;SDS011;3764;48.126;11.594;2023-03-01T09:49:26;28.98;;;17.95;;
7444;SDS011;3764;48.126;11.594;2023-03-01T09:51:57;31.65;;;18.67;;
7444;SDS011;3764;48.126;11.594;2023-03-01T09:54:26;28.58;;;16.63;;
7444;SDS011;3764;48.126;11.594;2023-03-01T09:56:59;29.42;;;19.13;;
7444;SDS011;3764;48.126;11.594;2023-03-01T09:59:35;28.70;;;18.02;;
7444;SDS011;3764;48.126;11.594;2023-03-01T10:02:19;33.47;;;18.42;;
7444;SDS011;3764;48.126;11.594;2023-03-01T10:04:51;31.73;;;17.95;;
7444;SDS011;3764;48.126;11.594;2023-03-01T10:07:27;31.30;;;18.40;;
7444;SDS011;3764;48.126;11.594;2023-03-01T10:10:01;30.73;;;18.23;;
7444;SDS011;3764;48.126;11.594;2023-03-01T10:12:33;37.50;;;19.90;;
7444;SDS011;3764;48.126;11.594;2023-03-01T10:15:05;33.55;;;19.42;;
7444;SDS011;3764;48.126;11.594;2023-03-01T10:17:39;36.03;;;19.65;;
7444;SDS011;3764;48.126;11.594;2023-03-01T10:20:16;30.25;;;16.92;;
7444;SDS011;3764;48.126;11.594;2023-03-01T10:22:46;34.67;;;18.23;;
7444;SDS011;3764;48.126;11.594;2023-03-01T10:25:17;27.85;;;16.35;;
7444;SDS011;3764;48.126;11.594;2023-03-01T10:27:53;27.52;;;17.73;;
7444;SDS011;3764;48.126;11.594;2023-03-01T10:30:29;32.58;;;18.27;;
7444;SDS011;3764;48.126;11.594;2023-03-01T10:33:03;25.38;;;16.08;;
7444;SDS011;3764;48.126;11.594;2023-03-01T10:35:32;21.00;;;12.45;;
7444;SDS011;3764;48.126;11.594;2023-03-01T10:38:04;41.72;;;21.42;;
7444;SDS011;3764;48.126;11.594;2023-03-01T10:40:34;30.90;;;19.27;;
7444;SDS011;3764;48.126;11.594;2023-03-01T10:43:02;29.50;;;18.45;;
7444;SDS011;3764;48.126;11.594;2023-03-01T10:45:32;30.27;;;19.38;;
7444;SDS011;3764;48.126;11.594;2023-03-01T10:48:09;32.80;;;19.63;;
7444;SDS011;3764;48.126;11.594;2023-03-01T10:50:39;31.42;;;19.45;;
7444;SDS011;3764;48.126;11.594;2023-03-01T10:53:18;33.72;;;18.15;;
7444;SDS011;3764;48.126;11.594;2023-03-01T10:56:02;33.33;;;19.50;;
7444;SDS011;3764;48.126;11.594;2023-03-01T10:58:32;27.02;;;17.65;;
7444;SDS011;3764;48.126;11.594;2023-03-01T11:01:00;31.80;;;18.58;;
7444;SDS011;3764;48.126;11.594;2023-03-01T11:03:31;33.40;;;19.17;;
7444;SDS011;3764;48.126;11.594;2023-03-01T11:06:01;30.20;;;18.10;;
7444;SDS011;3764;48.126;11.594;2023-03-01T11:08:41;29.85;;;17.95;;
7444;SDS011;3764;48.126;11.594;2023-03-01T11:11:23;31.85;;;18.70;;
7444;SDS011;3764;48.126;11.594;2023-03-01T11:13:57;34.58;;;20.27;;
7444;SDS011;3764;48.126;11.594;2023-03-01T11:16:30;26.70;;;18.15;;
7444;SDS011;3764;48.126;11.594;2023-03-01T11:19:06;29.40;;;19.67;;
7444;SDS011;3764;48.126;11.594;2023-03-01T11:21:42;30.38;;;19.08;;
7444;SDS011;3764;48.126;11.594;2023-03-01T11:24:16;30.20;;;19.83;;
7444;SDS011;3764;48.126;11.594;2023-03-01T11:26:46;33.22;;;20.45;;
7444;SDS011;3764;48.126;11.594;2023-03-01T11:29:21;31.05;;;21.13;;
7444;SDS011;3764;48.126;11.594;2023-03-01T11:31:57;29.90;;;20.92;;
7444;SDS011;3764;48.126;11.594;2023-03-01T11:34:32;30.83;;;21.25;;
7444;SDS011;3764;48.126;11.594;2023-03-01T11:37:09;28.63;;;20.10;;
7444;SDS011;3764;48.126;11.594;2023-03-01T11:39:43;29.63;;;19.88;;
7444;SDS011;3764;48.126;11.594;2023-03-01T11:42:17;28.20;;;19.80;;
7444;SDS011;3764;48.126;11.594;2023-03-01T11:44:47;30.42;;;21.05;;
7444;SDS011;3764;48.126;11.594;2023-03-01T11:47:20;31.65;;;20.92;;
7444;SDS011;3764;48.126;11.594;2023-03-01T11:50:04;31.13;;;21.92;;
7444;SDS011;3764;48.126;11.594;2023-03-01T11:52:41;31.08;;;21.50;;
7444;SDS011;3764;48.126;11.594;2023-03-01T11:55:26;26.42;;;20.42;;
7444;SDS011;3764;48.126;11.594;2023-03-01T11:58:11;31.02;;;20.88;;
7444;SDS011;3764;48.126;11.594;2023-03-01T12:00:52;30.77;;;20.75;;
7444;SDS011;3764;48.126;11.594;2023-03-01T12:03:49;27.25;;;18.90;;
7444;SDS011;3764;48.126;11.594;2023-03-01T12:06:33;27.25;;;19.13;;
7444;SDS011;3764;48.126;11.594;2023-03-01T12:09:17;30.77;;;19.30;;
7444;SDS011;3764;48.126;11.594;2023-03-01T12:11:58;28.27;;;19.15;;
7444;SDS011;3764;48.126;11.594;2023-03-01T12:14:44;37.88;;;21.90;;
7444;SDS011;3764;48.126;11.594;2023-03-01T12:20:25;28.95;;;20.35;;
7444;SDS011;3764;48.126;11.594;2023-03-01T12:23:02;27.77;;;20.75;;
7444;SDS011;3764;48.126;11.594;2023-03-01T12:25:42;31.13;;;19.40;;
7444;SDS011;3764;48.126;11.594;2023-03-01T12:28:18;30.83;;;20.05;;
7444;SDS011;3764;48.126;11.594;2023-03-01T12:31:05;30.00;;;18.27;;
7444;SDS011;3764;48.126;11.594;2023-03-01T12:33:45;28.25;;;17.45;;
7444;SDS011;3764;48.126;11.594;2023-03-01T12:39:26;28.33;;;19.45;;
7444;SDS011;3764;48.126;11.594;2023-03-01T12:42:08;34.58;;;18.25;;
7444;SDS011;3764;48.126;11.594;2023-03-01T12:47:53;26.13;;;17.80;;
7444;SDS011;3764;48.126;11.594;2023-03-01T12:50:29;27.88;;;18.88;;
7444;SDS011;3764;48.126;11.594;2023-03-01T12:53:07;28.83;;;19.48;;
7444;SDS011;3764;48.126;11.594;2023-03-01T12:55:47;31.63;;;19.27;;
7444;SDS011;3764;48.126;11.594;2023-03-01T12:58:19;29.17;;;19.77;;
7444;SDS011;3764;48.126;11.594;2023-03-01T13:00:53;26.75;;;18.13;;
7444;SDS011;3764;48.126;11.594;2023-03-01T13:03:33;27.35;;;18.92;;
7444;SDS011;3764;48.126;11.594;2023-03-01T13:06:08;24.98;;;18.40;;
7444;SDS011;3764;48.126;11.594;2023-03-01T13:08:41;29.80;;;19.38;;
7444;SDS011;3764;48.126;11.594;2023-03-01T13:11:17;28.80;;;19.10;;
7444;SDS011;3764;48.126;11.594;2023-03-01T13:13:46;29.35;;;19.50;;
7444;SDS011;3764;48.126;11.594;2023-03-01T13:16:21;25.17;;;19.73;;
7444;SDS011;3764;48.126;11.594;2023-03-01T13:19:07;26.45;;;17.95;;
7444;SDS011;3764;48.126;11.594;2023-03-01T13:21:39;29.10;;;20.20;;
7444;SDS011;3764;48.126;11.594;2023-03-01T13:27:18;30.20;;;19.20;;
7444;SDS011;3764;48.126;11.594;2023-03-01T13:29:54;29.95;;;20.42;;
7444;SDS011;3764;48.126;11.594;2023-03-01T13:32:25;31.48;;;19.27;;
7444;SDS011;3764;48.126;11.594;2023-03-01T13:34:57;32.90;;;19.90;;
7444;SDS011;3764;48.126;11.594;2023-03-01T13:37:27;28.85;;;20.73;;
7444;SDS011;3764;48.126;11.594;2023-03-01T13:39:56;30.42;;;20.75;;
7444;SDS011;3764;48.126;11.594;2023-03-01T13:42:30;25.17;;;17.55;;
7444;SDS011;3764;48.126;11.594;2023-03-01T13:45:14;26.92;;;18.30;;
7444;SDS011;3764;48.126;11.594;2023-03-01T13:47:45;27.52;;;20.17;;
7444;SDS011;3764;48.126;11.594;2023-03-01T13:50:16;29.20;;;19.23;;
7444;SDS011;3764;48.126;11.594;2023-03-01T13:52:48;26.95;;;18.80;;
7444;SDS011;3764;48.126;11.594;2023-03-01T13:55:19;27.35;;;18.90;;
7444;SDS011;3764;48.126;11.594;2023-03-01T13:57:53;33.50;;;20.65;;
7444;SDS011;3764;48.126;11.594;2023-03-01T14:00:30;35.47;;;19.48;;
7444;SDS011;3764;48.126;11.594;2023-03-01T14:03:01;25.77;;;17.58;;
7444;SDS011;3764;48.126;11.594;2023-03-01T14:05:31;23.98;;;16.42;;
7444;SDS011;3764;48.126;11.594;2023-03-01T14:07:58;26.63;;;16.13;;
7444;SDS011;3764;48.126;11.594;2023-03-01T14:10:26;25.77;;;17.23;;
7444;SDS011;3764;48.126;11.594;2023-03-01T14:13:05;28.73;;;18.52;;
7444;SDS011;3764;48.126;11.594;2023-03-01T14:15:45;27.45;;;16.90;;
7444;SDS011;3764;48.126;11.594;2023-03-01T14:18:23;30.25;;;19.30;;
7444;SDS011;3764;48.126;11.594;2023-03-01T14:20:56;28.67;;;19.05;;
7444;SDS011;3764;48.126;11.594;2023-03-01T14:23:25;28.40;;;20.20;;
7444;SDS011;3764;48.126;11.594;2023-03-01T14:25:55;27.40;;;19.67;;
7444;SDS011;3764;48.126;11.594;2023-03-01T14:28:26;29.27;;;19.60;;
7444;SDS011;3764;48.126;11.594;2023-03-01T14:30:55;29.75;;;19.73;;
7444;SDS011;3764;48.126;11.594;2023-03-01T14:33:23;28.27;;;19.83;;
7444;SDS011;3764;48.126;11.594;2023-03-01T14:35:53;32.00;;;20.85;;
7444;SDS011;3764;48.126;11.594;2023-03-01T14:38:22;25.65;;;18.80;;
7444;SDS011;3764;48.126;11.594;2023-03-01T14:40:55;28.75;;;20.48;;
7444;SDS011;3764;48.126;11.594;2023-03-01T14:43:26;26.30;;;18.27;;
7444;SDS011;3764;48.126;11.594;2023-03-01T14:45:56;31.77;;;19.20;;
7444;SDS011;3764;48.126;11.594;2023-03-01T14:48:23;28.60;;;18.90;;
7444;SDS011;3764;48.126;11.594;2023-03-01T14:50:51;30.08;;;19.50;;
7444;SDS011;3764;48.126;11.594;2023-03-01T14:53:19;27.45;;;19.10;;
7444;SDS011;3764;48.126;11.594;2023-03-01T14:55:48;29.00;;;20.33;;
7444;SDS011;3764;48.126;11.594;2023-03-01T14:58:19;28.50;;;17.98;;
7444;SDS011;3764;48.126;11.594;2023-03-01T15:00:50;25.58;;;18.42;;
7444;SDS011;3764;48.126;11.594;2023-03-01T15:03:23;28.15;;;17.23;;
7444;SDS011;3764;48.126;11.594;2023-03-01T15:05:54;28.10;;;17.17;;
7444;SDS011;3764;48.126;11.594;2023-03-01T15:08:23;25.25;;;17.67;;
7444;SDS011;3764;48.126;11.594;2023-03-01T15:10:56;27.00;;;17.73;;